Time;durP1;ratioP1;P1;durP2;ratioP2;P2;SDS_P1;SDS_P2;PMS_P1;PMS_P2;Temp;Humidity;BMP_temperature;BMP_pressure;BME280_temperature;BME280_humidity;BME280_pressure;Samples;Min_cycle;Max_cycle;Signal;HPM_P1;HPM_P2
2022/10/05 00:00:12;;;;;;;13.05;7.60;;;;;;;;;;5037293;28;20049;-81
2022/10/05 00:02:38;;;;;;;11.60;7.18;;;;;;;;;;5053127;28;20028;-81
2022/10/05 00:05:10;;;;;;;15.23;9.45;;;;;;;;;;5052919;28;20033;-82
2022/10/05 00:07:36;;;;;;;15.60;8.82;;;;;;;;;;5051494;28;20027;-81
2022/10/05 00:10:09;;;;;;;14.00;8.23;;;;;;;;;;5053639;28;20021;-81
2022/10/05 00:12:35;;;;;;;12.93;7.68;;;;;;;;;;5053863;28;20017;-82
2022/10/05 00:15:01;;;;;;;9.77;6.75;;;;;;;;;;5053551;28;20074;-81
2022/10/05 00:17:29;;;;;;;10.25;6.22;;;;;;;;;;5034339;28;20032;-81
2022/10/05 00:19:55;;;;;;;11.40;6.22;;;;;;;;;;5035783;28;20029;-82
2022/10/05 00:22:22;;;;;;;12.57;7.10;;;;;;;;;;5052628;28;20033;-82
2022/10/05 00:24:51;;;;;;;11.13;6.63;;;;;;;;;;5053698;28;20457;-81
2022/10/05 00:27:19;;;;;;;11.80;7.22;;;;;;;;;;5051745;28;20068;-81
2022/10/05 00:29:49;;;;;;;15.32;8.95;;;;;;;;;;5053676;28;20024;-81
2022/10/05 00:32:15;;;;;;;12.07;7.40;;;;;;;;;;5048795;28;20063;-81
2022/10/05 00:34:42;;;;;;;10.95;7.20;;;;;;;;;;5053212;28;20017;-80
2022/10/05 00:37:08;;;;;;;11.40;6.78;;;;;;;;;;5052908;28;20068;-81
2022/10/05 00:39:36;;;;;;;12.05;7.30;;;;;;;;;;5054484;28;20120;-80
2022/10/05 00:42:02;;;;;;;13.95;7.35;;;;;;;;;;5052795;28;20507;-81
2022/10/05 00:44:47;;;;;;;12.90;7.03;;;;;;;;;;5053253;28;20060;-81
2022/10/05 00:47:18;;;;;;;13.85;8.35;;;;;;;;;;5052111;28;20049;-81
2022/10/05 00:50:03;;;;;;;14.07;8.17;;;;;;;;;;5053137;28;20032;-82
2022/10/05 00:52:30;;;;;;;13.25;8.35;;;;;;;;;;5033201;28;20025;-80
2022/10/05 00:55:02;;;;;;;12.05;7.75;;;;;;;;;;5043186;28;20396;-81
2022/10/05 00:57:28;;;;;;;;;;;;;;;;;;5050218;28;20033;-82
2022/10/05 01:00:08;;;;;;;12.45;6.72;;;;;;;;;;5053371;28;20209;-81
2022/10/05 01:02:37;;;;;;;10.38;6.20;;;;;;;;;;5053180;28;20028;-81
2022/10/05 01:05:22;;;;;;;12.23;7.40;;;;;;;;;;5033595;28;20036;-81
2022/10/05 01:07:56;;;;;;;12.70;7.00;;;;;;;;;;5051496;28;20479;-81
2022/10/05 01:10:28;;;;;;;11.43;6.75;;;;;;;;;;5035151;28;20601;-81
2022/10/05 01:13:16;;;;;;;11.60;6.93;;;;;;;;;;5052182;28;20025;-81
2022/10/05 01:15:49;;;;;;;10.55;6.90;;;;;;;;;;5051546;28;20037;-81
2022/10/05 01:18:15;;;;;;;10.18;6.22;;;;;;;;;;5052733;28;20029;-81
2022/10/05 01:20:59;;;;;;;10.18;5.90;;;;;;;;;;5053098;28;20039;-81
2022/10/05 01:23:34;;;;;;;11.80;6.13;;;;;;;;;;5033796;28;20097;-81
2022/10/05 01:26:06;;;;;;;11.55;6.47;;;;;;;;;;5051186;28;20509;-81
2022/10/05 01:28:40;;;;;;;9.27;6.00;;;;;;;;;;5052871;28;20029;-82
2022/10/05 01:31:24;;;;;;;11.07;6.88;;;;;;;;;;5051817;28;20025;-81
2022/10/05 01:34:09;;;;;;;11.35;6.95;;;;;;;;;;5052770;28;20098;-81
2022/10/05 01:36:54;;;;;;;10.73;6.40;;;;;;;;;;5050588;28;20064;-80
2022/10/05 01:39:39;;;;;;;10.20;6.22;;;;;;;;;;5033722;28;20628;-81
2022/10/05 01:42:37;;;;;;;11.20;6.28;;;;;;;;;;5036620;28;20079;-81
2022/10/05 01:45:22;;;;;;;10.05;6.30;;;;;;;;;;4951514;29;20043;-81
2022/10/05 01:47:56;;;;;;;11.52;6.15;;;;;;;;;;4962692;28;20075;-81
2022/10/05 01:50:43;;;;;;;12.65;7.32;;;;;;;;;;4952278;29;20045;-81
2022/10/05 01:53:12;;;;;;;12.05;7.38;;;;;;;;;;4952711;29;20035;-81
2022/10/05 01:55:47;;;;;;;14.23;7.75;;;;;;;;;;4951188;29;20035;-81
2022/10/05 01:58:13;;;;;;;10.75;7.28;;;;;;;;;;4969249;28;20037;-80
2022/10/05 02:00:47;;;;;;;13.43;7.68;;;;;;;;;;4963474;28;20047;-80
2022/10/05 02:03:18;;;;;;;10.70;6.65;;;;;;;;;;4951617;29;20031;-79
2022/10/05 02:05:47;;;;;;;12.30;6.95;;;;;;;;;;4935356;29;20039;-80
2022/10/05 02:08:15;;;;;;;10.02;6.35;;;;;;;;;;4952590;28;20217;-80
2022/10/05 02:10:44;;;;;;;12.73;6.82;;;;;;;;;;4960862;28;20114;-81
2022/10/05 02:13:14;;;;;;;11.13;7.22;;;;;;;;;;4955782;29;20448;-81
2022/10/05 02:15:53;;;;;;;13.20;7.35;;;;;;;;;;4955980;29;20032;-81
2022/10/05 02:18:23;;;;;;;10.98;6.97;;;;;;;;;;4956680;28;20605;-81
2022/10/05 02:20:51;;;;;;;10.80;7.22;;;;;;;;;;5010934;28;20055;-81
2022/10/05 02:23:20;;;;;;;12.02;7.72;;;;;;;;;;5056233;28;20025;-80
2022/10/05 02:25:48;;;;;;;11.77;7.18;;;;;;;;;;5037524;28;20032;-79
2022/10/05 02:28:32;;;;;;;10.02;6.15;;;;;;;;;;5054022;28;20037;-81
2022/10/05 02:31:06;;;;;;;10.70;6.20;;;;;;;;;;5055189;28;20237;-80
2022/10/05 02:33:34;;;;;;;11.45;6.78;;;;;;;;;;5056169;28;20018;-79
2022/10/05 02:36:20;;;;;;;9.48;6.05;;;;;;;;;;5053658;28;20450;-81
2022/10/05 02:38:49;;;;;;;10.85;6.10;;;;;;;;;;5054706;28;20127;-80
2022/10/05 02:41:20;;;;;;;10.25;6.50;;;;;;;;;;5055342;28;20110;-79
2022/10/05 02:44:01;;;;;;;11.93;6.47;;;;;;;;;;5055405;28;20038;-81
2022/10/05 02:46:33;;;;;;;9.90;6.05;;;;;;;;;;5055884;28;20041;-79
2022/10/05 02:49:18;;;;;;;11.35;6.30;;;;;;;;;;5037778;28;20519;-81
2022/10/05 02:52:02;;;;;;;12.02;7.18;;;;;;;;;;5053890;28;20028;-79
2022/10/05 02:54:57;;;;;;;11.02;6.88;;;;;;;;;;5055879;28;20029;-81
2022/10/05 02:57:44;;;;;;;15.75;8.32;;;;;;;;;;5023695;28;20040;-79
2022/10/05 03:00:15;;;;;;;15.15;8.82;;;;;;;;;;5054972;28;20082;-83
2022/10/05 03:02:52;;;;;;;14.82;9.05;;;;;;;;;;5053530;28;20080;-80
2022/10/05 03:05:30;;;;;;;13.45;7.38;;;;;;;;;;5054760;28;20112;-80
2022/10/05 03:07:56;;;;;;;11.55;6.97;;;;;;;;;;5053632;28;20417;-80
2022/10/05 03:10:48;;;;;;;12.30;7.07;;;;;;;;;;5051239;28;20068;-79
2022/10/05 03:13:27;;;;;;;11.63;6.55;;;;;;;;;;5045188;28;20041;-80
2022/10/05 03:16:10;;;;;;;13.00;6.80;;;;;;;;;;5054377;28;20025;-81
2022/10/05 03:18:45;;;;;;;11.13;6.20;;;;;;;;;;5053476;28;20100;-80
2022/10/05 03:21:11;;;;;;;14.13;6.90;;;;;;;;;;5054444;28;20028;-80
2022/10/05 03:23:55;;;;;;;13.82;7.35;;;;;;;;;;5054084;28;20458;-79
2022/10/05 03:26:31;;;;;;;10.93;6.28;;;;;;;;;;5040749;28;20021;-80
2022/10/05 03:28:57;;;;;;;10.68;6.53;;;;;;;;;;5034997;28;20082;-80
2022/10/05 03:31:27;;;;;;;11.35;7.32;;;;;;;;;;5053808;28;20032;-79
2022/10/05 03:33:53;;;;;;;12.75;7.75;;;;;;;;;;5054262;28;20021;-79
2022/10/05 03:36:23;;;;;;;13.98;8.00;;;;;;;;;;5053451;28;20063;-79
2022/10/05 03:39:03;;;;;;;14.48;8.15;;;;;;;;;;5035370;28;20511;-80
2022/10/05 03:41:31;;;;;;;10.63;6.72;;;;;;;;;;5037297;28;20043;-79
2022/10/05 03:44:16;;;;;;;10.23;6.85;;;;;;;;;;5054225;28;20501;-80
2022/10/05 03:47:01;;;;;;;11.70;7.30;;;;;;;;;;5052217;28;20325;-80
2022/10/05 03:49:32;;;;;;;12.07;7.00;;;;;;;;;;5052618;28;20056;-80
2022/10/05 03:52:02;;;;;;;10.30;6.50;;;;;;;;;;5053787;28;20021;-80
2022/10/05 03:54:43;;;;;;;12.07;6.95;;;;;;;;;;5053803;28;20131;-79
2022/10/05 03:57:11;;;;;;;12.02;7.05;;;;;;;;;;5053653;28;20090;-81
2022/10/05 03:59:41;;;;;;;12.38;7.40;;;;;;;;;;5054313;28;20035;-81
2022/10/05 04:02:15;;;;;;;12.38;7.38;;;;;;;;;;5051813;28;20025;-81
2022/10/05 04:04:46;;;;;;;12.45;6.82;;;;;;;;;;5046424;28;20491;-81
2022/10/05 04:07:20;;;;;;;11.90;7.07;;;;;;;;;;5044478;28;20108;-81
2022/10/05 04:09:47;;;;;;;11.80;7.28;;;;;;;;;;5051460;28;20540;-81
2022/10/05 04:12:13;;;;;;;11.55;6.68;;;;;;;;;;5051973;28;20054;-81
2022/10/05 04:14:53;;;;;;;10.75;7.57;;;;;;;;;;5052455;28;20028;-80
2022/10/05 04:17:31;;;;;;;10.35;6.55;;;;;;;;;;5053479;28;20036;-80
2022/10/05 04:19:59;;;;;;;9.13;6.10;;;;;;;;;;5050372;28;20032;-81
2022/10/05 04:22:36;;;;;;;10.68;6.55;;;;;;;;;;5048295;28;20028;-80
2022/10/05 04:25:12;;;;;;;9.52;6.15;;;;;;;;;;5049089;28;20029;-79
2022/10/05 04:27:43;;;;;;;10.43;6.40;;;;;;;;;;5053304;28;20017;-80
2022/10/05 04:30:12;;;;;;;9.35;5.95;;;;;;;;;;5052721;28;20174;-79
2022/10/05 04:32:41;;;;;;;11.82;6.88;;;;;;;;;;5045326;28;20033;-80
2022/10/05 04:35:19;;;;;;;12.98;6.07;;;;;;;;;;5038946;28;20026;-81
2022/10/05 04:38:12;;;;;;;9.88;6.00;;;;;;;;;;5053449;28;20394;-80
2022/10/05 04:40:41;;;;;;;11.40;6.78;;;;;;;;;;5035904;28;20036;-80
2022/10/05 04:43:30;;;;;;;11.93;7.32;;;;;;;;;;5049878;28;20028;-79
2022/10/05 04:45:56;;;;;;;12.18;6.80;;;;;;;;;;5049166;28;20079;-80
2022/10/05 04:48:29;;;;;;;10.20;6.38;;;;;;;;;;5053283;28;20052;-80
2022/10/05 04:51:10;;;;;;;10.50;6.32;;;;;;;;;;5053658;28;20067;-79
2022/10/05 04:53:41;;;;;;;12.13;6.55;;;;;;;;;;5055469;28;20021;-80
2022/10/05 04:56:23;;;;;;;11.43;6.47;;;;;;;;;;5054320;28;20021;-79
2022/10/05 04:58:55;;;;;;;10.48;6.35;;;;;;;;;;5056051;28;20033;-80
2022/10/05 05:01:40;;;;;;;13.35;7.88;;;;;;;;;;5055427;28;20487;-80
2022/10/05 05:04:12;;;;;;;12.85;7.10;;;;;;;;;;5055627;28;20446;-79
2022/10/05 05:06:43;;;;;;;11.43;7.67;;;;;;;;;;5054235;28;20558;-79
2022/10/05 05:09:25;;;;;;;13.65;7.22;;;;;;;;;;5055502;28;20412;-80
2022/10/05 05:11:51;;;;;;;9.55;5.97;;;;;;;;;;5057002;28;20039;-82
2022/10/05 05:14:19;;;;;;;10.30;6.32;;;;;;;;;;5048316;28;20030;-81
2022/10/05 05:16:50;;;;;;;11.45;6.35;;;;;;;;;;5050470;28;20026;-81
2022/10/05 05:19:16;;;;;;;9.27;5.85;;;;;;;;;;5035564;28;20025;-82
2022/10/05 05:22:01;;;;;;;10.95;6.70;;;;;;;;;;5051138;28;20391;-81
2022/10/05 05:24:27;;;;;;;10.65;6.32;;;;;;;;;;5053653;28;20032;-80
2022/10/05 05:26:54;;;;;;;10.95;6.85;;;;;;;;;;5053168;28;20017;-79
2022/10/05 05:29:36;;;;;;;12.07;7.20;;;;;;;;;;5051785;28;20025;-82
2022/10/05 05:32:08;;;;;;;9.82;6.22;;;;;;;;;;5055403;28;20021;-80
2022/10/05 05:34:53;;;;;;;12.07;7.20;;;;;;;;;;5054156;28;20045;-81
2022/10/05 05:37:33;;;;;;;11.55;7.45;;;;;;;;;;5035202;28;20026;-79
2022/10/05 05:40:23;;;;;;;14.98;7.68;;;;;;;;;;5049053;28;20506;-79
2022/10/05 05:42:55;;;;;;;13.05;7.18;;;;;;;;;;5052237;28;20231;-80
2022/10/05 05:45:41;;;;;;;13.65;8.02;;;;;;;;;;5053296;28;20025;-81
2022/10/05 05:48:15;;;;;;;10.55;6.88;;;;;;;;;;5054939;28;20112;-81
2022/10/05 05:51:00;;;;;;;15.10;7.70;;;;;;;;;;5055498;28;20036;-80
2022/10/05 05:53:29;;;;;;;14.27;8.10;;;;;;;;;;5061260;28;20017;-81
2022/10/05 05:55:59;;;;;;;14.38;8.63;;;;;;;;;;5050830;28;20025;-81
2022/10/05 05:58:29;;;;;;;12.90;7.70;;;;;;;;;;5056656;28;20033;-81
2022/10/05 06:01:04;;;;;;;13.75;8.07;;;;;;;;;;5056458;28;20032;-80
2022/10/05 06:03:37;;;;;;;11.85;7.75;;;;;;;;;;5057670;28;20086;-80
2022/10/05 06:06:10;;;;;;;18.13;9.43;;;;;;;;;;5058106;28;20543;-80
2022/10/05 06:08:35;;;;;;;;;;;;;;;;;;5042413;28;20055;-80
2022/10/05 06:11:04;;;;;;;13.13;7.07;;;;;;;;;;5060169;28;19908;-80
2022/10/05 06:13:34;;;;;;;14.32;8.50;;;;;;;;;;5060893;28;20017;-80
2022/10/05 06:16:10;;;;;;;16.13;9.60;;;;;;;;;;5041963;28;20056;-80
2022/10/05 06:18:39;;;;;;;17.95;9.82;;;;;;;;;;5055709;28;20039;-80
2022/10/05 06:21:05;;;;;;;14.32;9.57;;;;;;;;;;5059272;28;20086;-81
2022/10/05 06:23:34;;;;;;;15.05;9.15;;;;;;;;;;5058290;28;20028;-81
2022/10/05 06:26:16;;;;;;;12.98;8.15;;;;;;;;;;5057489;28;20029;-81
2022/10/05 06:28:42;;;;;;;14.00;8.98;;;;;;;;;;5056560;28;20040;-80
2022/10/05 06:31:11;;;;;;;13.30;8.30;;;;;;;;;;5039788;28;20052;-80
2022/10/05 06:33:49;;;;;;;13.93;9.07;;;;;;;;;;5057828;28;20032;-80
2022/10/05 06:36:27;;;;;;;14.73;8.43;;;;;;;;;;5040779;28;20032;-80
2022/10/05 06:39:16;;;;;;;13.15;8.27;;;;;;;;;;5056994;28;20501;-80
2022/10/05 06:41:45;;;;;;;14.55;8.35;;;;;;;;;;5046619;28;20041;-80
2022/10/05 06:44:37;;;;;;;10.75;7.20;;;;;;;;;;5056830;28;20131;-80
2022/10/05 06:47:16;;;;;;;15.23;8.03;;;;;;;;;;4995051;28;20041;-79
2022/10/05 06:49:45;;;;;;;10.63;6.53;;;;;;;;;;4995397;28;20285;-80
2022/10/05 06:52:24;;;;;;;11.90;7.25;;;;;;;;;;4977984;28;20043;-79
2022/10/05 06:55:04;;;;;;;12.80;6.32;;;;;;;;;;4975800;28;20071;-80
2022/10/05 06:57:48;;;;;;;12.93;7.32;;;;;;;;;;4980534;28;20062;-79
2022/10/05 07:00:25;;;;;;;11.55;6.75;;;;;;;;;;4994486;28;20058;-79
2022/10/05 07:03:09;;;;;;;11.95;7.05;;;;;;;;;;4979030;28;20030;-79
2022/10/05 07:05:44;;;;;;;10.90;6.65;;;;;;;;;;4995421;28;20070;-80
2022/10/05 07:08:18;;;;;;;11.88;6.97;;;;;;;;;;4994105;28;20041;-78
2022/10/05 07:10:46;;;;;;;13.90;7.35;;;;;;;;;;4995036;28;20038;-79
2022/10/05 07:13:18;;;;;;;12.25;6.40;;;;;;;;;;4994388;28;20034;-79
2022/10/05 07:15:59;;;;;;;13.55;7.28;;;;;;;;;;4977994;28;20062;-78
2022/10/05 07:18:49;;;;;;;10.18;6.07;;;;;;;;;;4993551;28;20042;-79
2022/10/05 07:21:38;;;;;;;9.70;5.82;;;;;;;;;;4984438;28;20088;-79
2022/10/05 07:24:13;;;;;;;11.35;5.97;;;;;;;;;;5002034;28;20049;-80
2022/10/05 07:26:45;;;;;;;11.23;6.45;;;;;;;;;;5036091;28;20029;-80
2022/10/05 07:29:28;;;;;;;8.38;5.40;;;;;;;;;;5034785;28;20033;-80
2022/10/05 07:32:07;;;;;;;9.07;5.50;;;;;;;;;;5034834;28;20033;-80
2022/10/05 07:34:33;;;;;;;10.18;6.00;;;;;;;;;;5016357;28;20091;-80
2022/10/05 07:39:55;;;;;;;9.68;5.40;;;;;;;;;;5016569;28;20119;-80
2022/10/05 07:42:40;;;;;;;13.98;6.28;;;;;;;;;;5015790;28;20018;-80
2022/10/05 07:45:15;;;;;;;10.65;6.05;;;;;;;;;;5028011;28;20049;-80
2022/10/05 07:47:49;;;;;;;10.82;5.82;;;;;;;;;;5028465;28;20090;-79
2022/10/05 07:50:34;;;;;;;9.60;6.10;;;;;;;;;;5055366;28;20119;-80
2022/10/05 07:53:04;;;;;;;9.75;5.75;;;;;;;;;;5055685;28;20017;-79
2022/10/05 07:55:38;;;;;;;9.20;5.95;;;;;;;;;;5054752;28;20032;-80
2022/10/05 07:58:05;;;;;;;10.52;6.45;;;;;;;;;;5053225;28;20541;-80
2022/10/05 08:00:50;;;;;;;9.68;6.05;;;;;;;;;;5054969;28;20382;-80
2022/10/05 08:03:23;;;;;;;10.25;6.80;;;;;;;;;;5055105;28;20114;-80
2022/10/05 08:05:49;;;;;;;9.88;6.53;;;;;;;;;;5054042;28;20033;-80
2022/10/05 08:08:22;;;;;;;11.07;6.93;;;;;;;;;;5036238;28;20048;-80
2022/10/05 08:10:54;;;;;;;12.38;6.20;;;;;;;;;;5051238;28;20056;-81
2022/10/05 08:13:26;;;;;;;10.80;7.10;;;;;;;;;;5054567;28;20033;-81
2022/10/05 08:15:54;;;;;;;10.43;7.00;;;;;;;;;;5056218;28;20117;-79
2022/10/05 08:18:39;;;;;;;12.05;6.05;;;;;;;;;;5053987;28;20059;-80
2022/10/05 08:21:10;;;;;;;8.40;4.93;;;;;;;;;;5055263;28;20013;-80
2022/10/05 08:23:45;;;;;;;8.82;5.72;;;;;;;;;;5055435;28;20363;-81
2022/10/05 08:26:11;;;;;;;9.80;5.40;;;;;;;;;;5054973;28;20037;-80
2022/10/05 08:28:39;;;;;;;9.93;6.15;;;;;;;;;;5053245;28;20044;-78
2022/10/05 08:31:07;;;;;;;9.02;5.88;;;;;;;;;;5054560;28;20021;-80
2022/10/05 08:33:42;;;;;;;10.43;5.57;;;;;;;;;;5047085;28;20036;-78
2022/10/05 08:36:13;;;;;;;10.32;5.82;;;;;;;;;;5055137;28;20475;-80
2022/10/05 08:38:39;;;;;;;8.05;5.50;;;;;;;;;;5049122;28;20026;-79
2022/10/05 08:41:06;;;;;;;9.90;5.60;;;;;;;;;;5044234;28;20036;-80
2022/10/05 08:44:04;;;;;;;9.65;5.57;;;;;;;;;;5054703;28;20048;-80
2022/10/05 08:46:49;;;;;;;8.27;5.00;;;;;;;;;;4993385;28;20038;-78
2022/10/05 08:49:15;;;;;;;8.55;5.45;;;;;;;;;;4989897;28;20559;-82
2022/10/05 08:51:53;;;;;;;9.18;5.32;;;;;;;;;;4993358;28;20053;-78
2022/10/05 08:54:30;;;;;;;7.75;5.32;;;;;;;;;;4991407;28;20090;-79
2022/10/05 08:57:15;;;;;;;8.23;5.10;;;;;;;;;;4974378;28;20042;-80
2022/10/05 09:00:00;;;;;;;11.10;4.85;;;;;;;;;;4991380;28;20030;-82
2022/10/05 09:02:44;;;;;;;8.55;4.78;;;;;;;;;;4977688;28;20120;-82
2022/10/05 09:05:29;;;;;;;8.55;4.88;;;;;;;;;;4993345;28;20152;-81
2022/10/05 09:08:13;;;;;;;9.48;5.18;;;;;;;;;;4987338;28;20044;-81
2022/10/05 09:10:51;;;;;;;9.43;5.40;;;;;;;;;;4981450;28;20053;-81
2022/10/05 09:13:26;;;;;;;8.13;4.95;;;;;;;;;;4982003;28;20037;-82
2022/10/05 09:15:55;;;;;;;6.35;4.07;;;;;;;;;;4985792;28;20132;-82
2022/10/05 09:18:29;;;;;;;7.88;4.80;;;;;;;;;;4982284;28;20130;-81
2022/10/05 09:21:02;;;;;;;9.23;4.93;;;;;;;;;;4993922;28;20041;-81
2022/10/05 09:23:45;;;;;;;7.03;4.82;;;;;;;;;;5039171;28;20025;-81
2022/10/05 09:26:11;;;;;;;;;;;;;;;;;;5039471;28;20104;-81
2022/10/05 09:28:47;;;;;;;7.30;4.50;;;;;;;;;;5048833;28;19964;-81
2022/10/05 09:31:16;;;;;;;7.72;5.00;;;;;;;;;;5058204;28;20104;-80
2022/10/05 09:33:45;;;;;;;8.13;4.25;;;;;;;;;;5058626;28;20104;-79
2022/10/05 09:36:24;;;;;;;7.78;5.00;;;;;;;;;;5053125;28;20098;-80
2022/10/05 09:39:09;;;;;;;9.10;5.15;;;;;;;;;;5057702;28;20056;-80
2022/10/05 09:41:58;;;;;;;6.68;4.05;;;;;;;;;;5049568;28;20053;-81
2022/10/05 09:44:42;;;;;;;8.35;4.90;;;;;;;;;;5057594;28;20110;-81
2022/10/05 09:47:23;;;;;;;7.97;4.47;;;;;;;;;;5057355;28;20080;-81
2022/10/05 09:49:49;;;;;;;8.75;4.35;;;;;;;;;;5055559;28;20039;-81
2022/10/05 09:52:34;;;;;;;9.80;5.50;;;;;;;;;;5041271;28;20043;-81
2022/10/05 09:55:13;;;;;;;7.35;4.50;;;;;;;;;;5052458;28;20447;-82
2022/10/05 09:57:42;;;;;;;7.53;4.88;;;;;;;;;;5057523;28;20047;-82
2022/10/05 10:00:08;;;;;;;7.80;4.82;;;;;;;;;;5058529;28;20049;-81
2022/10/05 10:02:37;;;;;;;8.73;5.20;;;;;;;;;;5040408;28;20055;-80
2022/10/05 10:05:22;;;;;;;8.40;4.65;;;;;;;;;;5056038;28;20052;-80
2022/10/05 10:07:51;;;;;;;7.97;4.45;;;;;;;;;;5036537;28;20029;-81
2022/10/05 10:10:35;;;;;;;10.35;4.53;;;;;;;;;;5054928;28;20033;-81
2022/10/05 10:13:07;;;;;;;8.60;4.50;;;;;;;;;;5060070;28;20067;-81
2022/10/05 10:15:37;;;;;;;8.57;4.80;;;;;;;;;;5060342;28;20021;-81
2022/10/05 10:18:27;;;;;;;7.60;4.38;;;;;;;;;;5040078;28;20060;-81
2022/10/05 10:21:12;;;;;;;6.25;3.63;;;;;;;;;;5058706;28;20071;-81
2022/10/05 10:23:40;;;;;;;8.18;4.32;;;;;;;;;;5059141;28;20044;-80
2022/10/05 10:26:25;;;;;;;8.23;4.20;;;;;;;;;;5057678;28;20032;-79
2022/10/05 10:28:54;;;;;;;8.05;4.63;;;;;;;;;;5038013;28;20044;-81
2022/10/05 10:31:39;;;;;;;6.05;3.80;;;;;;;;;;5053637;28;20033;-81
2022/10/05 10:34:17;;;;;;;7.25;4.25;;;;;;;;;;5051365;28;20048;-80
2022/10/05 10:37:02;;;;;;;6.30;4.00;;;;;;;;;;5051846;28;20030;-81
2022/10/05 10:39:39;;;;;;;6.72;3.90;;;;;;;;;;5055098;28;20367;-79
2022/10/05 10:42:20;;;;;;;6.90;3.90;;;;;;;;;;5051153;28;20029;-80
2022/10/05 10:45:12;;;;;;;6.22;3.58;;;;;;;;;;5053984;28;20186;-80
2022/10/05 10:47:43;;;;;;;5.82;3.63;;;;;;;;;;5055991;28;20052;-80
2022/10/05 10:50:27;;;;;;;6.70;3.80;;;;;;;;;;5057228;28;20028;-80
2022/10/05 10:52:55;;;;;;;6.43;3.80;;;;;;;;;;5056947;28;20104;-80
2022/10/05 10:55:41;;;;;;;5.68;3.30;;;;;;;;;;5058025;28;20036;-81
2022/10/05 10:58:23;;;;;;;9.70;3.90;;;;;;;;;;5039070;28;20108;-80
2022/10/05 11:00:57;;;;;;;7.05;3.50;;;;;;;;;;5057712;28;20108;-80
2022/10/05 11:03:23;;;;;;;6.95;3.55;;;;;;;;;;5057320;28;20047;-81
2022/10/05 11:05:49;;;;;;;6.07;3.38;;;;;;;;;;5057139;28;20108;-80
2022/10/05 11:08:34;;;;;;;7.50;3.28;;;;;;;;;;5056794;28;20028;-80
2022/10/05 11:11:03;;;;;;;6.45;3.60;;;;;;;;;;5049657;28;20044;-80
2022/10/05 11:13:32;;;;;;;7.63;3.20;;;;;;;;;;5050437;28;20032;-81
2022/10/05 11:16:17;;;;;;;6.95;3.38;;;;;;;;;;5056798;28;20024;-80
2022/10/05 11:18:49;;;;;;;6.30;3.92;;;;;;;;;;5056438;28;20032;-80
2022/10/05 11:21:18;;;;;;;7.60;3.47;;;;;;;;;;5040233;28;20021;-80
2022/10/05 11:23:47;;;;;;;6.55;3.55;;;;;;;;;;5057466;28;20492;-79
2022/10/05 11:26:25;;;;;;;7.13;3.58;;;;;;;;;;5057610;28;20035;-80
2022/10/05 11:29:10;;;;;;;7.70;3.67;;;;;;;;;;5028727;28;20346;-80
2022/10/05 11:31:45;;;;;;;7.63;3.70;;;;;;;;;;5056643;28;20111;-81
2022/10/05 11:34:14;;;;;;;5.68;3.33;;;;;;;;;;5058093;28;20036;-80
2022/10/05 11:36:43;;;;;;;6.65;3.15;;;;;;;;;;5057089;28;20066;-81
2022/10/05 11:39:24;;;;;;;5.75;2.92;;;;;;;;;;5057951;28;20040;-81
2022/10/05 11:42:02;;;;;;;5.68;3.47;;;;;;;;;;5056757;28;20033;-80
2022/10/05 11:44:28;;;;;;;6.43;3.42;;;;;;;;;;5057899;28;20079;-80
2022/10/05 11:47:01;;;;;;;6.47;3.35;;;;;;;;;;5038010;28;20029;-79
2022/10/05 11:49:36;;;;;;;6.50;3.53;;;;;;;;;;5057270;28;20072;-80
2022/10/05 11:52:11;;;;;;;5.88;3.30;;;;;;;;;;5057023;28;20060;-81
2022/10/05 11:54:44;;;;;;;6.68;3.45;;;;;;;;;;5034180;28;20379;-81
2022/10/05 11:57:10;;;;;;;6.30;3.38;;;;;;;;;;5037920;28;20036;-80
2022/10/05 11:59:39;;;;;;;5.35;3.58;;;;;;;;;;5050708;28;20025;-80
2022/10/05 12:02:20;;;;;;;6.85;3.17;;;;;;;;;;5052492;28;20029;-81
2022/10/05 12:04:59;;;;;;;5.30;3.20;;;;;;;;;;5049953;28;20035;-79
2022/10/05 12:07:33;;;;;;;6.60;3.63;;;;;;;;;;5055807;28;20061;-81
2022/10/05 12:10:16;;;;;;;8.98;4.32;;;;;;;;;;5049679;28;20032;-80
2022/10/05 12:12:50;;;;;;;7.43;3.53;;;;;;;;;;5054758;28;20104;-79
2022/10/05 12:15:23;;;;;;;7.30;3.50;;;;;;;;;;5054169;28;20079;-80
2022/10/05 12:17:56;;;;;;;7.00;3.85;;;;;;;;;;5056186;28;20048;-81
2022/10/05 12:20:22;;;;;;;8.30;3.70;;;;;;;;;;5056006;28;20021;-79
2022/10/05 12:23:20;;;;;;;6.00;3.40;;;;;;;;;;5055425;28;20040;-79
2022/10/05 12:25:49;;;;;;;8.00;3.60;;;;;;;;;;4939584;29;20040;-80
2022/10/05 12:28:20;;;;;;;7.43;3.40;;;;;;;;;;4955561;28;20116;-80
2022/10/05 12:30:53;;;;;;;7.00;3.92;;;;;;;;;;4939643;29;20038;-83
2022/10/05 12:33:24;;;;;;;6.00;3.25;;;;;;;;;;4953913;28;20028;-80
2022/10/05 12:35:55;;;;;;;5.97;3.20;;;;;;;;;;4954857;29;20545;-81
2022/10/05 12:38:27;;;;;;;5.32;3.25;;;;;;;;;;4955361;29;20099;-81
2022/10/05 12:40:56;;;;;;;8.48;3.20;;;;;;;;;;4956551;28;20031;-83
2022/10/05 12:43:29;;;;;;;5.93;3.58;;;;;;;;;;4949125;28;20038;-81
2022/10/05 12:46:00;;;;;;;5.07;2.85;;;;;;;;;;4954510;29;20118;-82
2022/10/05 12:48:38;;;;;;;5.82;2.83;;;;;;;;;;4953829;29;20058;-81
2022/10/05 12:51:07;;;;;;;8.32;2.97;;;;;;;;;;4954783;29;20102;-82
2022/10/05 12:53:55;;;;;;;5.93;3.40;;;;;;;;;;4938598;29;20279;-81
2022/10/05 12:56:27;;;;;;;6.53;3.70;;;;;;;;;;4953593;28;20059;-79
2022/10/05 12:59:09;;;;;;;6.13;2.97;;;;;;;;;;4952311;29;20065;-82
2022/10/05 13:01:46;;;;;;;6.30;3.40;;;;;;;;;;5001613;28;20072;-80
2022/10/05 13:04:18;;;;;;;6.57;2.90;;;;;;;;;;5053225;28;20044;-82
2022/10/05 13:07:07;;;;;;;5.80;3.25;;;;;;;;;;5054803;28;20025;-79
2022/10/05 13:09:53;;;;;;;5.38;3.35;;;;;;;;;;5054452;28;20041;-81
2022/10/05 13:12:22;;;;;;;6.15;3.60;;;;;;;;;;5052799;28;20052;-79
2022/10/05 13:14:48;;;;;;;6.05;3.60;;;;;;;;;;5055378;28;20025;-80
2022/10/05 13:17:23;;;;;;;6.40;3.20;;;;;;;;;;5053102;28;20049;-80
2022/10/05 13:20:01;;;;;;;5.57;3.55;;;;;;;;;;5028236;28;20088;-81
2022/10/05 13:22:31;;;;;;;6.32;3.47;;;;;;;;;;5054467;28;20021;-81
2022/10/05 13:25:16;;;;;;;6.88;3.60;;;;;;;;;;5038542;28;20437;-81
2022/10/05 13:28:02;;;;;;;5.00;3.30;;;;;;;;;;5057189;28;20025;-79
2022/10/05 13:30:28;;;;;;;7.60;3.10;;;;;;;;;;5045341;28;20041;-79
2022/10/05 13:32:54;;;;;;;8.80;3.90;;;;;;;;;;5059103;28;20471;-79
2022/10/05 13:35:20;;;;;;;5.55;3.33;;;;;;;;;;5037343;28;20088;-82
2022/10/05 13:37:53;;;;;;;6.40;3.20;;;;;;;;;;5054054;28;20037;-79
2022/10/05 13:40:24;;;;;;;17.38;5.75;;;;;;;;;;5055283;28;20100;-81
2022/10/05 13:42:51;;;;;;;6.50;3.35;;;;;;;;;;5053084;28;20103;-82
2022/10/05 13:45:17;;;;;;;6.15;3.47;;;;;;;;;;5055246;28;20419;-82
2022/10/05 13:47:49;;;;;;;6.10;3.70;;;;;;;;;;5047724;28;20337;-82
2022/10/05 13:50:22;;;;;;;9.20;5.13;;;;;;;;;;5046527;28;20030;-81
2022/10/05 13:52:48;;;;;;;6.05;3.30;;;;;;;;;;5054849;28;20059;-81
2022/10/05 13:55:20;;;;;;;6.85;3.88;;;;;;;;;;5055713;28;20025;-81
2022/10/05 13:57:46;;;;;;;11.25;4.07;;;;;;;;;;5050165;28;20027;-81
2022/10/05 14:00:18;;;;;;;6.40;3.50;;;;;;;;;;5056125;28;20029;-81
2022/10/05 14:02:46;;;;;;;6.07;3.28;;;;;;;;;;5054643;28;20040;-81
2022/10/05 14:05:17;;;;;;;6.18;3.33;;;;;;;;;;5056561;28;20032;-79
2022/10/05 14:07:53;;;;;;;8.13;3.67;;;;;;;;;;5038274;28;20021;-79
2022/10/05 14:10:36;;;;;;;6.32;3.10;;;;;;;;;;5058587;28;20036;-81
2022/10/05 14:13:16;;;;;;;6.50;3.58;;;;;;;;;;5058161;28;20032;-81
2022/10/05 14:15:54;;;;;;;6.40;3.38;;;;;;;;;;5059453;28;20033;-79
2022/10/05 14:18:25;;;;;;;6.00;3.35;;;;;;;;;;5046823;28;20063;-81
2022/10/05 14:21:02;;;;;;;7.22;3.85;;;;;;;;;;5040656;28;20064;-80
2022/10/05 14:23:28;;;;;;;6.75;3.38;;;;;;;;;;5039243;28;20020;-81
2022/10/05 14:25:55;;;;;;;7.28;3.28;;;;;;;;;;5040451;28;20021;-82
2022/10/05 14:28:29;;;;;;;6.10;3.47;;;;;;;;;;5045562;28;20032;-81
2022/10/05 14:31:21;;;;;;;5.63;3.40;;;;;;;;;;5058881;28;20017;-80
2022/10/05 14:33:47;;;;;;;6.87;4.00;;;;;;;;;;4975294;28;20062;-80
2022/10/05 14:36:31;;;;;;;6.68;3.33;;;;;;;;;;4976778;28;20453;-80
2022/10/05 14:39:00;;;;;;;8.15;3.63;;;;;;;;;;4978008;28;20043;-80
2022/10/05 14:41:28;;;;;;;6.22;3.03;;;;;;;;;;4965600;28;20087;-80
2022/10/05 14:44:03;;;;;;;5.63;3.35;;;;;;;;;;4974385;28;20057;-80
2022/10/05 14:46:31;;;;;;;7.72;4.72;;;;;;;;;;4969675;28;20035;-80
2022/10/05 14:49:26;;;;;;;5.00;3.30;;;;;;;;;;4963550;28;20046;-79
2022/10/05 14:51:53;;;;;;;7.60;4.15;;;;;;;;;;4966239;28;20401;-79
2022/10/05 14:54:32;;;;;;;5.82;3.58;;;;;;;;;;4965732;28;20027;-79
2022/10/05 14:57:01;;;;;;;7.10;3.28;;;;;;;;;;4960131;28;20039;-80
2022/10/05 14:59:36;;;;;;;6.70;3.65;;;;;;;;;;4962337;28;20022;-79
2022/10/05 15:02:11;;;;;;;5.13;2.88;;;;;;;;;;4977196;28;20027;-77
2022/10/05 15:04:44;;;;;;;5.63;3.33;;;;;;;;;;4977375;28;20043;-79
2022/10/05 15:07:10;;;;;;;;;;;;;;;;;;4978284;28;20029;-79
2022/10/05 15:09:36;;;;;;;7.28;3.38;;;;;;;;;;4973080;28;20312;-80
2022/10/05 15:12:02;;;;;;;8.02;3.70;;;;;;;;;;5055583;28;20396;-80
2022/10/05 15:14:28;;;;;;;9.43;3.17;;;;;;;;;;5055715;28;20064;-81
2022/10/05 15:16:57;;;;;;;6.55;3.40;;;;;;;;;;5058077;28;20033;-80
2022/10/05 15:19:31;;;;;;;9.45;3.40;;;;;;;;;;5058153;28;20021;-80
2022/10/05 15:22:00;;;;;;;5.20;3.25;;;;;;;;;;5057378;28;20032;-80
2022/10/05 15:24:31;;;;;;;8.23;3.50;;;;;;;;;;5058312;28;20059;-80